KDAG

Details ICAO KDAG
Name BARSTOW DAGGETT
Region United States
Timezone America/Los_Angeles (UTC-8.0)
Plans Departing 4
Arriving 8
Stats Elevation 1,927 ft / 587 m (AMSL)
Location 34.853992° -116.786628°
Runways 2
Magnetic Variation 11.834° E
Sunrise 2017-12-14 14:48:22 UTC / 2017-12-14 06:48:22 Local
Sunset 2017-12-15 00:38:24 UTC / 2017-12-14 16:38:24 Local
Advertisement - Login to hide

Runways

ID Width Length Bearing (true) Bearing (mag) Surface Threshold Offset Overrun Length
04 100 ft / 30 m 5,118 ft / 1,560 m 50.37° 38.54° Asphalt 0 ft / 0 m 0 ft / 0 m
08 150 ft / 46 m 6,387 ft / 1,947 m 90.04° 78.21° Asphalt 0 ft / 0 m 0 ft / 0 m
22 100 ft / 30 m 5,118 ft / 1,560 m 230.38° 218.55° Asphalt 0 ft / 0 m 0 ft / 0 m
26 150 ft / 46 m 6,387 ft / 1,947 m 270.05° 258.22° Asphalt 0 ft / 0 m 0 ft / 0 m

Map

Weather


0- 5 10 15 20 25 30 35+ Temperature / ° C

Clouds and Precipitation
Forecast for 2017-12-14 18:00 UTC. Updated 2 hours ago

Ground ~20,000 ft ~40,000 ft Winds

METAR

KDAG 141650Z AUTO 12008KT 10SM CLR 16/M13 A3021 RMK AO2 SLP220 T01561133

TAF

KDAG 141140Z 1412/1512 27010KT P6SM SKC FM141800 04012KT P6SM SCT250 FM142300 07008KT P6SM SCT250 FM150300 VRB06KT P6SM FEW250

Frequencies

Recorded 132.17 MHz ASOS
Unicom 123.00 MHz CTAF/UNICOM
Warning: Do not use this data for real-world aviation or navigation. No guarantee of current accuracy is given.